Kuurne, Belgique

07:45 CEST le 01 août 2015 (GMT +0200)
Lesquin | | Change Station
CLOSE
Current Station
Aéroport
Location: Lille,
Altitude: 154 ft
Stations météo à proximité

Alt. 154 ft 50.57 °N, 3.10 °E | Updated 15 minutes ago

Clear
Ciel dégagé
54 ° F
Paraît 54 ° F
N
4
Vent Variable Vent de ONO

Aujourd'hui
Haut(e) -- | Bas -- ° F
--% Risque de précip.
Hier
Haut(e) -- | Bas -- ° F
Precip. -- pouce
6:12 AM 9:33 PM
Pleine lune, 99% visible
Pression 29.98 pouce
Visibilité -9999.0 Miles terrestres
Nuages
Point de rosée 46 ° F
Humidité 77%
Précipitations 0.00 pouce
Profondeur de la couche neigeuse Non disponible.
UV Non disponible.
Pollen Non disponible.
Qualité de l'air Non disponible.
Flu Activity Non disponible.
METAR LFQQ 010530Z AUTO 29003KT CAVOK 12/08 Q1015

More Conditions Fewer Conditions

Pression 29.98 pouce
Visibilité -9999.0 Miles terrestres
Nuages
Point de rosée 46 ° F
Humidité 77%
Précipitations 0.00 pouce
Profondeur de la couche neigeuse Non disponible.
UV Non disponible.
Pollen Non disponible.
Qualité de l'air Non disponible.
Flu Activity Non disponible.
METAR LFQQ 010530Z AUTO 29003KT CAVOK 12/08 Q1015

More Conditions Fewer Conditions

10-Day Weather Forecast

×

Almanac

Astronomie

Aug. 01, 2015 Lever Coucher
Temps réel
Crépuscule civil
Crépuscule nautique
Crépuscule astronomique
Lune
Durée de lumière visible
Longueur du jour
Tomorrow will be .
, % of the Moon is Illuminated

Extrêmes aujourd'hui

Country Highs Country Lows

Community

WunderPhotos

Upload Photos

1,842,887 Photos téléchargées !

WunderBlogs® & News

Nearby

Qualité de l'air

  Qualité de l'air Indice de la qualité de l'air Polluant
Not available.

Épaisseur de neige

Station Depth Altitude

Activité sismique

Ville Distance Mag. Time & Date
Minimum magnitude displayed is 2.5.

Températures des eaux côtières

Lieu Température

Stations

Stations météo à proximité

Emplacement de la station Température Refroidissement éolien Point de rosée Humidité Vent Precip. Alt. Mise à jour Type